createdAt,value
2019-03-29T00:04:13.135Z,105.09
2019-03-29T00:09:17.290Z,98.00
2019-03-29T00:14:23.368Z,110.50
2019-03-29T00:19:25.962Z,100.00
2019-03-29T00:24:37.710Z,97.70
2019-03-29T00:29:47.675Z,101.91
2019-03-29T00:34:53.395Z,106.57
2019-03-29T00:40:06.309Z,96.30
2019-03-29T00:45:13.831Z,97.71
2019-03-29T00:50:18.872Z,95.71
2019-03-29T00:55:24.488Z,95.14
2019-03-29T01:00:31.283Z,102.00
2019-03-29T01:05:41.449Z,95.30
2019-03-29T01:10:52.967Z,97.40
2019-03-29T01:16:03.755Z,99.20
2019-03-29T01:21:07.778Z,99.00
2019-03-29T01:26:19.482Z,100.64
2019-03-29T01:31:23.490Z,108.00
2019-03-29T01:36:35.196Z,104.29
2019-03-29T01:41:38.308Z,91.75
2019-03-29T01:46:43.720Z,94.71
2019-03-29T01:51:51.022Z,101.50
2019-03-29T01:57:02.671Z,96.60
2019-03-29T02:02:14.246Z,91.20
2019-03-29T02:07:19.324Z,102.43
2019-03-29T02:12:30.110Z,89.67
2019-03-29T02:17:38.399Z,96.56
2019-03-29T02:22:46.690Z,96.56
2019-03-29T02:27:58.239Z,107.30
2019-03-29T02:33:02.440Z,97.00
2019-03-29T02:38:06.163Z,103.00
2019-03-29T02:43:17.588Z,102.80
2019-03-29T02:48:29.171Z,93.60
2019-03-29T02:53:40.742Z,94.00
2019-03-29T02:58:44.650Z,89.00
2019-03-29T03:03:49.637Z,85.00
2019-03-29T03:09:13.243Z,84.00
2019-03-29T03:14:12.000Z,80.00
2019-03-29T03:19:19.442Z,81.67
2019-03-29T03:24:25.936Z,78.67
2019-03-29T03:29:36.645Z,82.00
2019-03-29T03:34:44.931Z,84.67
2019-03-29T03:39:50.217Z,84.43
2019-03-29T03:45:01.822Z,92.10
2019-03-29T03:50:08.896Z,86.75
2019-03-29T03:55:13.113Z,83.67
2019-03-29T04:00:17.779Z,88.00
2019-03-29T04:05:22.694Z,76.25
2019-03-29T04:10:30.059Z,76.56
2019-03-29T04:15:38.019Z,77.11
2019-03-29T04:20:46.083Z,85.20
2019-03-29T04:25:56.665Z,84.11
2019-03-29T04:31:06.375Z,77.11
2019-03-29T04:36:14.415Z,86.56
2019-03-29T04:41:22.376Z,87.56
2019-03-29T04:46:30.388Z,76.44
2019-03-29T04:51:37.578Z,74.78
2019-03-29T04:56:41.754Z,76.50
2019-03-29T05:01:49.747Z,75.00
2019-03-29T05:06:59.492Z,80.33
2019-03-29T05:12:07.649Z,77.25
2019-03-29T05:17:17.685Z,87.67
2019-03-29T05:22:25.750Z,87.22
2019-03-29T05:27:33.775Z,82.00
2019-03-29T05:32:43.097Z,77.56
2019-03-29T05:38:40.410Z,87.00
2019-03-29T05:43:47.040Z,80.00
2019-03-29T05:48:57.138Z,78.54
2019-03-29T05:54:05.443Z,75.00
2019-03-29T05:59:11.925Z,84.37
2019-03-29T06:04:22.491Z,81.89
2019-03-29T06:09:25.687Z,84.25
2019-03-29T06:14:29.339Z,85.00
2019-03-29T06:19:41.156Z,80.60
2019-03-29T06:24:45.988Z,75.00
2019-03-29T06:29:55.644Z,85.00
2019-03-29T06:35:06.674Z,77.67
2019-03-29T06:40:12.871Z,85.75
2019-03-29T06:45:16.687Z,78.80
2019-03-29T06:50:25.157Z,97.90
2019-03-29T06:55:30.095Z,80.33
2019-03-29T07:00:40.023Z,83.08
2019-03-29T07:05:45.244Z,77.29
2019-03-29T07:10:59.608Z,92.40
2019-03-29T07:16:09.175Z,92.43
2019-03-29T07:21:21.614Z,79.00
2019-03-29T07:26:22.851Z,86.89
2019-03-29T07:31:35.865Z,90.40
2019-03-29T07:36:40.794Z,88.83
2019-03-29T07:41:51.034Z,95.14
2019-03-29T07:47:03.595Z,82.92
2019-03-29T07:52:08.429Z,89.67
2019-03-29T07:57:11.979Z,85.00
2019-03-29T08:02:15.814Z,83.00
2019-03-29T08:07:27.463Z,88.10
2019-03-29T08:12:35.315Z,89.50
2019-03-29T08:17:40.389Z,80.00
2019-03-29T08:22:44.919Z,82.67
2019-03-29T08:27:55.658Z,86.33
2019-03-29T08:33:01.376Z,84.57
2019-03-29T08:38:06.692Z,82.86
2019-03-29T08:43:11.018Z,77.40
2019-03-29T08:48:22.402Z,75.50
2019-03-29T08:53:31.172Z,74.33
2019-03-29T08:58:34.698Z,77.00
2019-03-29T09:03:38.400Z,72.00
2019-03-29T09:08:46.371Z,76.44
2019-03-29T09:13:58.008Z,75.70
2019-03-29T09:19:02.207Z,70.50
2019-03-29T09:24:21.286Z,72.70
2019-03-29T09:29:16.146Z,66.50
2019-03-29T09:34:23.159Z,71.12
2019-03-29T09:39:30.316Z,64.12
2019-03-29T09:44:34.224Z,59.00
2019-03-29T09:49:40.146Z,56.57
2019-03-29T09:54:48.175Z,46.00
2019-03-29T09:59:55.624Z,50.25
2019-03-29T10:05:01.428Z,47.00
2019-03-29T10:10:07.091Z,51.63
2019-03-29T10:15:11.009Z,52.00
2019-03-29T10:20:18.931Z,47.00
2019-03-29T10:25:26.004Z,52.88
2019-03-29T10:30:36.795Z,48.67
2019-03-29T10:35:51.727Z,54.75
2019-03-29T10:40:50.710Z,55.50
2019-03-29T10:45:57.191Z,46.25
2019-03-29T10:51:08.182Z,45.57
2019-03-29T10:56:11.671Z,41.50
2019-03-29T11:01:15.576Z,48.33
2019-03-29T11:06:21.794Z,41.50
2019-03-29T11:11:30.106Z,50.14
2019-03-29T11:16:34.524Z,28.50
2019-03-29T11:21:38.214Z,47.25
2019-03-29T11:26:46.434Z,41.11
2019-03-29T11:31:54.308Z,45.38
2019-03-29T11:37:00.627Z,41.00
2019-03-29T11:42:10.080Z,35.00
2019-03-29T11:47:19.191Z,39.25
2019-03-29T11:52:25.603Z,49.50
2019-03-29T11:57:31.320Z,48.87
2019-03-29T12:02:38.003Z,48.63
2019-03-29T12:07:41.222Z,38.33
2019-03-29T12:12:47.775Z,48.00
2019-03-29T12:17:54.961Z,60.25
2019-03-29T12:22:58.190Z,51.67
2019-03-29T12:28:03.274Z,52.00
2019-03-29T12:33:08.769Z,53.00
2019-03-29T12:38:12.777Z,61.67
2019-03-29T12:43:22.466Z,67.18
2019-03-29T12:48:26.995Z,73.80
2019-03-29T12:53:30.139Z,73.25
2019-03-29T12:58:35.638Z,69.67
2019-03-29T13:03:45.763Z,61.89
2019-03-29T13:08:51.034Z,58.57
2019-03-29T13:14:09.929Z,59.10
2019-03-29T13:19:41.860Z,55.13
2019-03-29T13:24:46.134Z,55.00
2019-03-29T13:29:51.064Z,57.00
2019-03-29T13:34:54.571Z,56.67
2019-03-29T13:40:01.475Z,50.50
2019-03-29T13:45:08.400Z,50.12
2019-03-29T13:55:17.885Z,67.37
2019-03-29T14:00:24.017Z,48.87
2019-03-29T14:05:28.401Z,43.75
2019-03-29T14:10:35.736Z,51.00
2019-03-29T14:15:41.247Z,55.38
2019-03-29T14:20:47.833Z,60.88
2019-03-29T14:25:55.459Z,55.71
2019-03-29T14:31:02.751Z,52.25
2019-03-29T14:36:09.852Z,55.80
2019-03-29T14:41:17.912Z,52.67
2019-03-29T14:46:22.321Z,60.67
2019-03-29T14:51:29.671Z,54.50
2019-03-29T14:56:35.647Z,41.37
2019-03-29T15:01:39.926Z,49.00
2019-03-29T15:06:44.470Z,49.00
2019-03-29T15:11:48.115Z,40.00
2019-03-29T15:16:51.886Z,50.00
2019-03-29T15:21:57.808Z,45.75
2019-03-29T15:27:07.990Z,53.21
2019-03-29T15:32:47.172Z,49.06
2019-03-29T15:37:52.814Z,44.67
2019-03-29T15:42:56.980Z,52.25
2019-03-29T15:48:03.356Z,50.25
2019-03-29T15:53:12.052Z,42.38
2019-03-29T15:58:24.091Z,54.67
2019-03-29T16:03:31.992Z,53.50
2019-03-29T16:08:48.107Z,56.82
2019-03-29T16:13:56.306Z,48.50
2019-03-29T16:19:04.770Z,56.80
2019-03-29T16:24:10.936Z,52.88
2019-03-29T16:29:18.713Z,50.00
2019-03-29T16:34:27.999Z,48.50
2019-03-29T16:39:32.062Z,52.25
2019-03-29T16:44:39.813Z,44.67
2019-03-29T16:49:49.103Z,54.88
2019-03-29T16:54:56.131Z,49.78
2019-03-29T17:00:12.303Z,52.56
2019-03-29T17:05:16.091Z,51.67
2019-03-29T17:10:24.451Z,53.13
2019-03-29T17:15:27.943Z,50.33
2019-03-29T17:20:33.912Z,55.75
2019-03-29T17:25:39.611Z,53.57
2019-03-29T17:30:47.306Z,51.75
2019-03-29T17:35:53.888Z,51.88
2019-03-29T17:40:57.360Z,55.00
2019-03-29T17:46:15.206Z,50.67
2019-03-29T17:51:09.211Z,54.13
2019-03-29T17:56:13.038Z,58.00
2019-03-29T18:01:17.612Z,59.50
2019-03-29T18:06:28.546Z,61.56
2019-03-29T18:11:35.599Z,62.00
2019-03-29T18:16:40.468Z,61.00
2019-03-29T18:21:45.145Z,57.75
2019-03-29T18:26:54.390Z,62.00
2019-03-29T18:32:00.917Z,60.75
2019-03-29T18:37:08.442Z,65.67
2019-03-29T18:42:19.094Z,73.60
2019-03-29T18:47:26.332Z,66.25
2019-03-29T18:52:38.924Z,71.31
2019-03-29T18:57:48.564Z,68.92
2019-03-29T19:02:55.954Z,63.56
2019-03-29T19:08:00.043Z,72.00
2019-03-29T19:13:08.403Z,72.00
2019-03-29T19:18:15.341Z,71.33
2019-03-29T19:23:20.194Z,72.33
2019-03-29T19:28:24.307Z,71.20
2019-03-29T19:33:34.008Z,74.69
2019-03-29T19:38:38.434Z,72.33
2019-03-29T19:43:48.269Z,77.36
2019-03-29T19:48:54.922Z,95.43
2019-03-29T19:54:08.146Z,86.17
2019-03-29T19:59:23.472Z,72.94
2019-03-29T20:04:28.443Z,75.00
2019-03-29T20:09:33.361Z,79.00
2019-03-29T20:14:37.855Z,70.80
2019-03-29T20:19:44.821Z,80.33
2019-03-29T20:24:56.031Z,85.64
2019-03-29T20:30:08.164Z,77.00
2019-03-29T20:35:11.877Z,77.00
2019-03-29T20:40:18.161Z,76.50
2019-03-29T20:45:21.886Z,77.60
2019-03-29T20:50:32.770Z,81.11
2019-03-29T20:55:38.787Z,76.62
2019-03-29T21:00:53.514Z,88.07
2019-03-29T21:06:05.298Z,77.67
2019-03-29T21:11:12.212Z,76.67
2019-03-29T21:16:15.486Z,72.67
2019-03-29T21:21:19.650Z,76.00
2019-03-29T21:26:24.930Z,72.00
2019-03-29T21:31:36.398Z,83.87
2019-03-29T21:36:48.662Z,84.92
2019-03-29T21:41:57.024Z,77.00
2019-03-29T21:47:08.023Z,72.36
2019-03-29T21:52:12.434Z,75.50
2019-03-29T21:57:29.970Z,75.57
2019-03-29T22:02:45.123Z,77.71
2019-03-29T22:07:49.799Z,77.75
2019-03-29T22:13:00.308Z,73.67
2019-03-29T22:18:06.884Z,80.40
2019-03-29T22:23:15.500Z,76.90
2019-03-29T22:28:18.995Z,75.00
2019-03-29T22:33:22.256Z,77.50
2019-03-29T22:38:26.460Z,78.00
2019-03-29T22:43:31.121Z,78.20
2019-03-29T22:48:35.520Z,85.00
2019-03-29T22:53:42.742Z,75.00
2019-03-29T22:58:47.295Z,82.00
2019-03-29T23:03:52.287Z,82.00
2019-03-29T23:08:59.263Z,82.33
2019-03-29T23:14:14.366Z,78.30
2019-03-29T23:19:19.178Z,78.50
2019-03-29T23:24:27.394Z,75.60
2019-03-29T23:29:39.798Z,79.93
2019-03-29T23:34:51.248Z,77.87
2019-03-29T23:40:06.974Z,81.73
2019-03-29T23:45:20.987Z,70.29
2019-03-29T23:50:26.842Z,76.00
2019-03-29T23:55:35.641Z,73.75
